WZZ8TQ LHBP-EETN
Flight info
| Callsign | WZZ8TQ |
|---|---|
| Flight time | 1h 52m |
| Altitude | 35000 |
| Route | LITKU Y301 KALIF DCT SUPAK DCT LOGDA DCT SUWGI DCT BERIL DCT SOKVA DCT ANAMA DCT KEMET |
| Aircraft | A21N/M-SDE1E2E3FGIJ1J4RWXY/LB1 |
Departure
| Time | 2026-05-05 16:08 |
|---|---|
| Airport | Budapest Liszt Ferenc International Airport (LHBP) |
Arrival
| Time | 2026-05-05 18:00 |
|---|---|
| Airport | Lennart Meri Tallinn Airport (EETN) |
| Time | Latitude | Longitude | Altitude | Speed | Heading |
|---|---|---|---|---|---|
| 2026-05-05 15:42 | 47.43565 | 19.26393 | 0 ft | 0 kts | 222° |
| 2026-05-05 16:00 | 47.43572 | 19.26403 | 463 ft | 4 kts | 223° |
| 2026-05-05 16:00 | 47.43587 | 19.26424 | 463 ft | 4 kts | 239° |
| 2026-05-05 16:00 | 47.43591 | 19.26458 | 463 ft | 4 kts | 290° |
| 2026-05-05 16:01 | 47.43578 | 19.26491 | 463 ft | 4 kts | 310° |
| 2026-05-05 16:01 | 47.43561 | 19.26519 | 463 ft | 2 kts | 312° |
| 2026-05-05 16:01 | 47.43560 | 19.26520 | 463 ft | 0 kts | 312° |
| 2026-05-05 16:04 | 47.43561 | 19.26519 | 463 ft | 1 kts | 312° |
| 2026-05-05 16:04 | 47.43573 | 19.26500 | 463 ft | 4 kts | 312° |
| 2026-05-05 16:05 | 47.43599 | 19.26457 | 463 ft | 7 kts | 313° |
| 2026-05-05 16:05 | 47.43639 | 19.26394 | 463 ft | 10 kts | 313° |
| 2026-05-05 16:05 | 47.43702 | 19.26364 | 463 ft | 11 kts | 28° |
| 2026-05-05 16:05 | 47.43773 | 19.26426 | 463 ft | 13 kts | 346° |
| 2026-05-05 16:06 | 47.43845 | 19.26327 | 462 ft | 15 kts | 313° |
| 2026-05-05 16:06 | 47.43913 | 19.26222 | 463 ft | 8 kts | 333° |
| 2026-05-05 16:06 | 47.43974 | 19.26238 | 464 ft | 10 kts | 35° |
| 2026-05-05 16:06 | 47.44035 | 19.26318 | 468 ft | 13 kts | 52° |
| 2026-05-05 16:07 | 47.44069 | 19.26453 | 477 ft | 16 kts | 91° |
| 2026-05-05 16:07 | 47.44040 | 19.26570 | 476 ft | 11 kts | 129° |
| 2026-05-05 16:07 | 47.43887 | 19.26818 | 473 ft | 69 kts | 134° |
| 2026-05-05 16:07 | 47.43391 | 19.27617 | 467 ft | 140 kts | 133° |
| 2026-05-05 16:08 | 47.42647 | 19.28832 | 696 ft | 163 kts | 133° |
| 2026-05-05 16:08 | 47.41881 | 19.30087 | 1223 ft | 173 kts | 131° |
| 2026-05-05 16:08 | 47.41327 | 19.31760 | 1668 ft | 191 kts | 116° |
| 2026-05-05 16:08 | 47.40690 | 19.33543 | 2148 ft | 202 kts | 122° |
| 2026-05-05 16:09 | 47.39968 | 19.35423 | 2673 ft | 220 kts | 123° |
| 2026-05-05 16:09 | 47.39183 | 19.37477 | 3182 ft | 238 kts | 122° |
| 2026-05-05 16:09 | 47.38388 | 19.39629 | 3878 ft | 250 kts | 117° |
| 2026-05-05 16:09 | 47.38057 | 19.42237 | 4427 ft | 272 kts | 87° |
| 2026-05-05 16:10 | 47.38546 | 19.44990 | 5150 ft | 285 kts | 68° |
| 2026-05-05 16:10 | 47.39728 | 19.47345 | 6006 ft | 290 kts | 40° |
| 2026-05-05 16:10 | 47.41535 | 19.48688 | 6867 ft | 293 kts | 12° |
| 2026-05-05 16:10 | 47.43560 | 19.49075 | 7687 ft | 296 kts | 3° |
| 2026-05-05 16:11 | 47.45632 | 19.49282 | 8475 ft | 300 kts | 2° |
| 2026-05-05 16:11 | 47.51972 | 19.50030 | 10746 ft | 310 kts | 4° |
| 2026-05-05 16:12 | 47.54146 | 19.50322 | 11343 ft | 319 kts | 4° |
| 2026-05-05 16:12 | 47.58705 | 19.50943 | 12421 ft | 339 kts | 4° |
| 2026-05-05 16:13 | 47.66045 | 19.51945 | 13983 ft | 365 kts | 4° |
| 2026-05-05 16:13 | 47.68583 | 19.52290 | 14495 ft | 367 kts | 4° |
| 2026-05-05 16:13 | 47.71136 | 19.52639 | 15003 ft | 369 kts | 4° |
| 2026-05-05 16:14 | 47.76276 | 19.53345 | 16010 ft | 373 kts | 4° |
| 2026-05-05 16:14 | 47.81476 | 19.54056 | 17260 ft | 378 kts | 4° |
| 2026-05-05 16:15 | 47.86706 | 19.54874 | 18511 ft | 382 kts | 6° |
| 2026-05-05 16:15 | 47.92032 | 19.55793 | 19672 ft | 388 kts | 6° |
| 2026-05-05 16:16 | 47.97431 | 19.56740 | 20759 ft | 394 kts | 6° |
| 2026-05-05 16:16 | 48.02914 | 19.57677 | 21803 ft | 399 kts | 5° |
| 2026-05-05 16:17 | 48.08475 | 19.58626 | 22795 ft | 405 kts | 5° |
| 2026-05-05 16:17 | 48.10919 | 19.59042 | 23206 ft | 407 kts | 5° |
| 2026-05-05 16:18 | 48.16586 | 19.60010 | 24137 ft | 412 kts | 5° |
| 2026-05-05 16:18 | 48.19443 | 19.60499 | 24580 ft | 414 kts | 5° |
| 2026-05-05 16:18 | 48.25202 | 19.61492 | 25454 ft | 418 kts | 5° |
| 2026-05-05 16:19 | 48.28110 | 19.61992 | 25870 ft | 421 kts | 5° |
| 2026-05-05 16:19 | 48.31017 | 19.62493 | 26277 ft | 422 kts | 5° |
| 2026-05-05 16:19 | 48.36893 | 19.63509 | 27032 ft | 427 kts | 5° |
| 2026-05-05 16:20 | 48.42823 | 19.64520 | 27757 ft | 430 kts | 5° |
| 2026-05-05 16:20 | 48.48795 | 19.65551 | 28456 ft | 434 kts | 5° |
| 2026-05-05 16:21 | 48.54818 | 19.66597 | 29105 ft | 437 kts | 5° |
| 2026-05-05 16:22 | 48.63935 | 19.68217 | 30000 ft | 442 kts | 5° |
| 2026-05-05 16:22 | 48.70030 | 19.69286 | 30542 ft | 446 kts | 5° |
| 2026-05-05 16:23 | 48.76265 | 19.70360 | 31057 ft | 449 kts | 5° |
| 2026-05-05 16:23 | 48.79373 | 19.70905 | 31307 ft | 451 kts | 5° |
| 2026-05-05 16:23 | 48.85580 | 19.72007 | 31873 ft | 452 kts | 5° |
| 2026-05-05 16:24 | 48.88703 | 19.72559 | 32175 ft | 451 kts | 5° |
| 2026-05-05 16:24 | 48.91819 | 19.73105 | 32469 ft | 451 kts | 5° |
| 2026-05-05 16:24 | 48.98042 | 19.74213 | 32986 ft | 450 kts | 5° |
| 2026-05-05 16:25 | 49.01149 | 19.74768 | 33222 ft | 450 kts | 5° |
| 2026-05-05 16:25 | 49.07356 | 19.75866 | 33708 ft | 449 kts | 5° |
| 2026-05-05 16:25 | 49.10462 | 19.76419 | 33921 ft | 449 kts | 5° |
| 2026-05-05 16:26 | 49.16660 | 19.77526 | 34356 ft | 448 kts | 5° |
| 2026-05-05 16:26 | 49.22853 | 19.78631 | 34777 ft | 448 kts | 5° |
| 2026-05-05 16:27 | 49.25950 | 19.79184 | 34926 ft | 447 kts | 5° |
| 2026-05-05 16:27 | 49.29037 | 19.79745 | 34935 ft | 447 kts | 6° |
| 2026-05-05 16:27 | 49.35102 | 19.81980 | 34901 ft | 449 kts | 14° |
| 2026-05-05 16:28 | 49.41111 | 19.84621 | 34890 ft | 449 kts | 14° |
| 2026-05-05 16:28 | 49.47043 | 19.87197 | 34897 ft | 449 kts | 14° |
| 2026-05-05 16:29 | 49.53059 | 19.89822 | 34879 ft | 449 kts | 14° |
| 2026-05-05 16:29 | 49.59071 | 19.92452 | 34864 ft | 450 kts | 14° |
| 2026-05-05 16:30 | 49.65095 | 19.95091 | 34850 ft | 450 kts | 14° |
| 2026-05-05 16:30 | 49.71130 | 19.97743 | 34832 ft | 450 kts | 14° |
| 2026-05-05 16:31 | 49.77160 | 20.00398 | 34822 ft | 451 kts | 14° |
| 2026-05-05 16:31 | 49.83193 | 20.03055 | 34815 ft | 451 kts | 14° |
| 2026-05-05 16:32 | 49.89177 | 20.05714 | 34802 ft | 451 kts | 14° |
| 2026-05-05 16:32 | 49.95252 | 20.08410 | 34800 ft | 451 kts | 14° |
| 2026-05-05 16:33 | 50.01277 | 20.11091 | 34805 ft | 451 kts | 14° |
| 2026-05-05 16:33 | 50.07270 | 20.13759 | 34796 ft | 451 kts | 14° |
| 2026-05-05 16:34 | 50.13300 | 20.16459 | 34794 ft | 451 kts | 14° |
| 2026-05-05 16:34 | 50.19331 | 20.19158 | 34792 ft | 451 kts | 14° |
| 2026-05-05 16:35 | 50.25357 | 20.21864 | 34792 ft | 451 kts | 14° |
| 2026-05-05 16:35 | 50.31387 | 20.24585 | 34796 ft | 451 kts | 14° |
| 2026-05-05 16:36 | 50.37417 | 20.27325 | 34795 ft | 451 kts | 14° |
| 2026-05-05 16:36 | 50.43441 | 20.30048 | 34790 ft | 450 kts | 14° |
| 2026-05-05 16:37 | 50.49454 | 20.32781 | 34787 ft | 450 kts | 14° |
| 2026-05-05 16:37 | 50.55471 | 20.35524 | 34786 ft | 450 kts | 14° |
| 2026-05-05 16:38 | 50.61480 | 20.38271 | 34789 ft | 450 kts | 14° |
| 2026-05-05 16:38 | 50.67509 | 20.41023 | 34790 ft | 451 kts | 14° |
| 2026-05-05 16:39 | 50.73526 | 20.43795 | 34789 ft | 451 kts | 14° |
| 2026-05-05 16:39 | 50.79542 | 20.46571 | 34789 ft | 450 kts | 14° |
| 2026-05-05 16:40 | 50.85561 | 20.49339 | 34787 ft | 451 kts | 14° |
| 2026-05-05 16:40 | 50.91589 | 20.52131 | 34791 ft | 451 kts | 14° |
| 2026-05-05 16:41 | 50.97606 | 20.54940 | 34792 ft | 451 kts | 14° |
| 2026-05-05 16:41 | 51.03636 | 20.57739 | 34791 ft | 452 kts | 14° |
| 2026-05-05 16:42 | 51.09631 | 20.60538 | 34790 ft | 452 kts | 14° |
| 2026-05-05 16:42 | 51.15699 | 20.63396 | 34790 ft | 452 kts | 14° |
| 2026-05-05 16:43 | 51.21694 | 20.66235 | 34789 ft | 452 kts | 14° |
| 2026-05-05 16:43 | 51.27733 | 20.69095 | 34787 ft | 453 kts | 14° |
| 2026-05-05 16:44 | 51.33773 | 20.71969 | 34791 ft | 453 kts | 14° |
| 2026-05-05 16:44 | 51.39818 | 20.74846 | 34789 ft | 453 kts | 13° |
| 2026-05-05 16:45 | 51.44880 | 20.77251 | 34783 ft | 454 kts | 14° |
| 2026-05-05 16:45 | 51.50895 | 20.80128 | 34781 ft | 454 kts | 14° |
| 2026-05-05 16:46 | 51.56981 | 20.83059 | 34780 ft | 453 kts | 14° |
| 2026-05-05 16:46 | 51.63023 | 20.85966 | 34774 ft | 453 kts | 14° |
| 2026-05-05 16:47 | 51.69020 | 20.88850 | 34780 ft | 453 kts | 14° |
| 2026-05-05 16:47 | 51.75069 | 20.91776 | 34771 ft | 454 kts | 14° |
| 2026-05-05 16:48 | 51.81114 | 20.94716 | 34769 ft | 454 kts | 14° |
| 2026-05-05 16:48 | 51.87154 | 20.97666 | 34767 ft | 454 kts | 14° |
| 2026-05-05 16:49 | 51.93207 | 21.00608 | 34764 ft | 454 kts | 14° |
| 2026-05-05 16:49 | 51.99243 | 21.03558 | 34761 ft | 454 kts | 14° |
| 2026-05-05 16:50 | 52.05307 | 21.06530 | 34760 ft | 457 kts | 14° |
| 2026-05-05 16:50 | 52.11397 | 21.09524 | 34761 ft | 458 kts | 14° |
| 2026-05-05 16:51 | 52.17494 | 21.12538 | 34758 ft | 458 kts | 14° |
| 2026-05-05 16:51 | 52.23594 | 21.15563 | 34760 ft | 458 kts | 14° |
| 2026-05-05 16:52 | 52.29694 | 21.18582 | 34760 ft | 458 kts | 14° |
| 2026-05-05 16:52 | 52.35792 | 21.21624 | 34760 ft | 458 kts | 14° |
| 2026-05-05 16:53 | 52.41851 | 21.24650 | 34760 ft | 459 kts | 14° |
| 2026-05-05 16:53 | 52.47959 | 21.27687 | 34758 ft | 459 kts | 14° |
| 2026-05-05 16:54 | 52.54097 | 21.30774 | 34769 ft | 458 kts | 14° |
| 2026-05-05 16:54 | 52.60159 | 21.33840 | 34771 ft | 459 kts | 14° |
| 2026-05-05 16:55 | 52.66263 | 21.36918 | 34778 ft | 459 kts | 14° |
| 2026-05-05 16:55 | 52.72382 | 21.40007 | 34782 ft | 460 kts | 14° |
| 2026-05-05 16:56 | 52.78497 | 21.43125 | 34785 ft | 460 kts | 14° |
| 2026-05-05 16:56 | 52.84616 | 21.46236 | 34792 ft | 461 kts | 14° |
| 2026-05-05 16:57 | 52.90752 | 21.49378 | 34791 ft | 461 kts | 14° |
| 2026-05-05 16:57 | 52.96883 | 21.52519 | 34801 ft | 462 kts | 14° |
| 2026-05-05 16:58 | 53.02986 | 21.55651 | 34803 ft | 463 kts | 14° |
| 2026-05-05 16:58 | 53.09149 | 21.58833 | 34800 ft | 464 kts | 14° |
| 2026-05-05 16:59 | 53.15299 | 21.62015 | 34817 ft | 464 kts | 14° |
| 2026-05-05 16:59 | 53.21485 | 21.65215 | 34814 ft | 465 kts | 14° |
| 2026-05-05 17:00 | 53.27670 | 21.68440 | 34804 ft | 466 kts | 14° |
| 2026-05-05 17:00 | 53.33821 | 21.71643 | 34814 ft | 466 kts | 14° |
| 2026-05-05 17:01 | 53.40020 | 21.74891 | 34812 ft | 468 kts | 14° |
| 2026-05-05 17:01 | 53.46230 | 21.78152 | 34811 ft | 467 kts | 14° |
| 2026-05-05 17:02 | 53.52446 | 21.81417 | 34805 ft | 469 kts | 14° |
| 2026-05-05 17:02 | 53.58671 | 21.84716 | 34831 ft | 470 kts | 14° |
| 2026-05-05 17:03 | 53.64906 | 21.88023 | 34830 ft | 470 kts | 14° |
| 2026-05-05 17:03 | 53.71141 | 21.91339 | 34833 ft | 470 kts | 14° |
| 2026-05-05 17:04 | 53.77383 | 21.94666 | 34832 ft | 471 kts | 14° |
| 2026-05-05 17:04 | 53.83640 | 21.98003 | 34841 ft | 471 kts | 14° |
| 2026-05-05 17:05 | 53.89888 | 22.01359 | 34840 ft | 471 kts | 14° |
| 2026-05-05 17:05 | 53.96073 | 22.05077 | 34823 ft | 475 kts | 27° |
| 2026-05-05 17:06 | 53.98741 | 22.08391 | 34831 ft | 477 kts | 44° |
| 2026-05-05 17:06 | 54.00870 | 22.12708 | 34849 ft | 477 kts | 54° |
| 2026-05-05 17:06 | 54.04243 | 22.21975 | 34846 ft | 477 kts | 62° |
| 2026-05-05 17:07 | 54.07435 | 22.31889 | 34846 ft | 477 kts | 62° |
| 2026-05-05 17:07 | 54.10593 | 22.41807 | 34849 ft | 478 kts | 63° |
| 2026-05-05 17:08 | 54.13763 | 22.51808 | 34853 ft | 478 kts | 62° |
| 2026-05-05 17:08 | 54.16923 | 22.61811 | 34845 ft | 479 kts | 63° |
| 2026-05-05 17:09 | 54.20173 | 22.71750 | 34835 ft | 482 kts | 54° |
| 2026-05-05 17:09 | 54.22421 | 22.75964 | 34835 ft | 479 kts | 38° |
| 2026-05-05 17:09 | 54.25160 | 22.79179 | 34857 ft | 476 kts | 29° |
| 2026-05-05 17:10 | 54.30851 | 22.84955 | 34855 ft | 476 kts | 28° |
| 2026-05-05 17:10 | 54.36527 | 22.90629 | 34854 ft | 477 kts | 26° |
| 2026-05-05 17:11 | 54.39556 | 22.92839 | 34839 ft | 470 kts | 12° |
| 2026-05-05 17:11 | 54.42741 | 22.93894 | 34852 ft | 465 kts | 3° |
| 2026-05-05 17:11 | 54.49172 | 22.95334 | 34851 ft | 465 kts | 3° |
| 2026-05-05 17:12 | 54.55582 | 22.96835 | 34851 ft | 466 kts | 3° |
| 2026-05-05 17:12 | 54.62004 | 22.98382 | 34852 ft | 466 kts | 3° |
| 2026-05-05 17:13 | 54.68436 | 22.99950 | 34850 ft | 467 kts | 3° |
| 2026-05-05 17:13 | 54.74875 | 23.01517 | 34852 ft | 467 kts | 3° |
| 2026-05-05 17:14 | 54.81313 | 23.03097 | 34849 ft | 468 kts | 3° |
| 2026-05-05 17:14 | 54.87762 | 23.04688 | 34851 ft | 468 kts | 3° |
| 2026-05-05 17:15 | 54.94208 | 23.06273 | 34851 ft | 468 kts | 3° |
| 2026-05-05 17:15 | 55.00644 | 23.07863 | 34857 ft | 468 kts | 3° |
| 2026-05-05 17:16 | 55.06840 | 23.09382 | 34882 ft | 468 kts | 2° |
| 2026-05-05 17:16 | 55.13303 | 23.10981 | 34871 ft | 469 kts | 2° |
| 2026-05-05 17:17 | 55.19752 | 23.12598 | 34857 ft | 469 kts | 2° |
| 2026-05-05 17:17 | 55.26171 | 23.14217 | 34859 ft | 469 kts | 2° |
| 2026-05-05 17:18 | 55.32632 | 23.15834 | 34871 ft | 469 kts | 2° |
| 2026-05-05 17:18 | 55.39102 | 23.17462 | 34867 ft | 469 kts | 2° |
| 2026-05-05 17:19 | 55.45564 | 23.19106 | 34865 ft | 469 kts | 2° |
| 2026-05-05 17:19 | 55.52032 | 23.20752 | 34868 ft | 470 kts | 2° |
| 2026-05-05 17:20 | 55.58500 | 23.22395 | 34867 ft | 470 kts | 2° |
| 2026-05-05 17:20 | 55.64971 | 23.24045 | 34870 ft | 471 kts | 2° |
| 2026-05-05 17:21 | 55.71463 | 23.25704 | 34870 ft | 471 kts | 2° |
| 2026-05-05 17:22 | 55.81172 | 23.28208 | 34877 ft | 470 kts | 2° |
| 2026-05-05 17:22 | 55.87651 | 23.29875 | 34884 ft | 470 kts | 2° |
| 2026-05-05 17:23 | 55.94129 | 23.31552 | 34886 ft | 471 kts | 2° |
| 2026-05-05 17:23 | 56.00600 | 23.33219 | 34880 ft | 470 kts | 2° |
| 2026-05-05 17:24 | 56.07092 | 23.34922 | 34878 ft | 471 kts | 2° |
| 2026-05-05 17:24 | 56.13579 | 23.36629 | 34883 ft | 471 kts | 1° |
| 2026-05-05 17:25 | 56.20044 | 23.38864 | 34884 ft | 479 kts | 10° |
| 2026-05-05 17:25 | 56.26456 | 23.42192 | 34880 ft | 479 kts | 10° |
| 2026-05-05 17:26 | 56.32855 | 23.45535 | 34872 ft | 479 kts | 10° |
| 2026-05-05 17:26 | 56.39226 | 23.48816 | 34872 ft | 479 kts | 10° |
| 2026-05-05 17:27 | 56.45672 | 23.52175 | 34871 ft | 478 kts | 10° |
| 2026-05-05 17:27 | 56.52014 | 23.55530 | 34869 ft | 479 kts | 10° |
| 2026-05-05 17:28 | 56.58408 | 23.58871 | 34869 ft | 478 kts | 9° |
| 2026-05-05 17:28 | 56.64819 | 23.62100 | 34870 ft | 478 kts | 9° |
| 2026-05-05 17:29 | 56.71221 | 23.65418 | 34875 ft | 478 kts | 10° |
| 2026-05-05 17:29 | 56.77605 | 23.68789 | 34877 ft | 477 kts | 10° |
| 2026-05-05 17:30 | 56.83980 | 23.72156 | 34879 ft | 477 kts | 10° |
| 2026-05-05 17:30 | 56.90353 | 23.75535 | 34872 ft | 477 kts | 10° |
| 2026-05-05 17:31 | 56.96723 | 23.78911 | 34877 ft | 476 kts | 10° |
| 2026-05-05 17:31 | 57.03092 | 23.82300 | 34878 ft | 476 kts | 9° |
| 2026-05-05 17:32 | 57.09506 | 23.85114 | 34883 ft | 473 kts | 6° |
| 2026-05-05 17:32 | 57.15923 | 23.87877 | 34875 ft | 474 kts | 6° |
| 2026-05-05 17:33 | 57.21253 | 23.90178 | 34870 ft | 473 kts | 6° |
| 2026-05-05 17:33 | 57.27647 | 23.92966 | 34872 ft | 472 kts | 6° |
| 2026-05-05 17:34 | 57.34030 | 23.95753 | 34873 ft | 472 kts | 7° |
| 2026-05-05 17:34 | 57.40419 | 23.98554 | 34869 ft | 472 kts | 6° |
| 2026-05-05 17:35 | 57.46809 | 24.01361 | 34869 ft | 472 kts | 6° |
| 2026-05-05 17:35 | 57.53194 | 24.04190 | 34862 ft | 471 kts | 6° |
| 2026-05-05 17:35 | 57.56379 | 24.05598 | 34684 ft | 468 kts | 6° |
| 2026-05-05 17:36 | 57.59549 | 24.07002 | 34369 ft | 471 kts | 6° |
| 2026-05-05 17:36 | 57.62749 | 24.08423 | 34103 ft | 472 kts | 6° |
| 2026-05-05 17:36 | 57.65941 | 24.09839 | 33850 ft | 472 kts | 6° |
| 2026-05-05 17:36 | 57.69130 | 24.11265 | 33545 ft | 472 kts | 6° |
| 2026-05-05 17:37 | 57.72315 | 24.12684 | 32975 ft | 470 kts | 6° |
| 2026-05-05 17:37 | 57.75486 | 24.14102 | 32379 ft | 469 kts | 6° |
| 2026-05-05 17:37 | 57.78664 | 24.15533 | 31776 ft | 467 kts | 6° |
| 2026-05-05 17:37 | 57.81815 | 24.16948 | 31183 ft | 466 kts | 5° |
| 2026-05-05 17:38 | 57.84965 | 24.18369 | 30596 ft | 464 kts | 5° |
| 2026-05-05 17:38 | 57.88090 | 24.19781 | 30041 ft | 461 kts | 5° |
| 2026-05-05 17:38 | 57.91170 | 24.21173 | 29458 ft | 459 kts | 5° |
| 2026-05-05 17:38 | 57.94296 | 24.22583 | 28906 ft | 455 kts | 5° |
| 2026-05-05 17:39 | 57.97365 | 24.24106 | 28218 ft | 459 kts | 10° |
| 2026-05-05 17:39 | 58.00388 | 24.26167 | 27499 ft | 461 kts | 13° |
| 2026-05-05 17:39 | 58.03374 | 24.28302 | 26896 ft | 458 kts | 13° |
| 2026-05-05 17:39 | 58.06302 | 24.30409 | 26317 ft | 454 kts | 13° |
| 2026-05-05 17:40 | 58.09265 | 24.32530 | 25755 ft | 448 kts | 13° |
| 2026-05-05 17:40 | 58.12172 | 24.34603 | 25215 ft | 443 kts | 13° |
| 2026-05-05 17:40 | 58.15047 | 24.36659 | 24671 ft | 439 kts | 13° |
| 2026-05-05 17:40 | 58.17883 | 24.38687 | 24120 ft | 434 kts | 13° |
| 2026-05-05 17:41 | 58.20700 | 24.40702 | 23572 ft | 430 kts | 13° |
| 2026-05-05 17:41 | 58.23451 | 24.42677 | 23043 ft | 426 kts | 13° |
| 2026-05-05 17:41 | 58.26207 | 24.44656 | 22530 ft | 421 kts | 13° |
| 2026-05-05 17:41 | 58.28939 | 24.46619 | 22003 ft | 418 kts | 13° |
| 2026-05-05 17:42 | 58.31643 | 24.48567 | 21458 ft | 414 kts | 13° |
| 2026-05-05 17:42 | 58.34327 | 24.50499 | 20929 ft | 410 kts | 13° |
| 2026-05-05 17:42 | 58.36986 | 24.52425 | 20424 ft | 406 kts | 13° |
| 2026-05-05 17:42 | 58.39612 | 24.54322 | 19932 ft | 402 kts | 13° |
| 2026-05-05 17:43 | 58.42218 | 24.56210 | 19456 ft | 398 kts | 13° |
| 2026-05-05 17:43 | 58.44787 | 24.58073 | 19011 ft | 394 kts | 13° |
| 2026-05-05 17:43 | 58.47337 | 24.59926 | 18576 ft | 392 kts | 13° |
| 2026-05-05 17:43 | 58.49860 | 24.61761 | 18147 ft | 390 kts | 13° |
| 2026-05-05 17:44 | 58.52418 | 24.63624 | 17705 ft | 389 kts | 13° |
| 2026-05-05 17:44 | 58.54942 | 24.65462 | 17272 ft | 389 kts | 13° |
| 2026-05-05 17:44 | 58.57465 | 24.67304 | 16834 ft | 388 kts | 13° |
| 2026-05-05 17:44 | 58.59989 | 24.69152 | 16391 ft | 388 kts | 14° |
| 2026-05-05 17:45 | 58.62517 | 24.71005 | 15947 ft | 388 kts | 14° |
| 2026-05-05 17:45 | 58.65038 | 24.72866 | 15513 ft | 388 kts | 14° |
| 2026-05-05 17:45 | 58.67527 | 24.74746 | 15169 ft | 380 kts | 14° |
| 2026-05-05 17:45 | 58.69960 | 24.76573 | 14883 ft | 370 kts | 14° |
| 2026-05-05 17:46 | 58.72347 | 24.78323 | 14448 ft | 365 kts | 13° |
| 2026-05-05 17:46 | 58.74697 | 24.80036 | 14057 ft | 359 kts | 14° |
| 2026-05-05 17:46 | 58.76953 | 24.81711 | 13820 ft | 349 kts | 13° |
| 2026-05-05 17:46 | 58.79184 | 24.83346 | 13579 ft | 339 kts | 13° |
| 2026-05-05 17:47 | 58.81373 | 24.84956 | 13171 ft | 335 kts | 13° |
| 2026-05-05 17:47 | 58.83544 | 24.86557 | 12734 ft | 333 kts | 13° |
| 2026-05-05 17:47 | 58.85703 | 24.88155 | 12290 ft | 331 kts | 13° |
| 2026-05-05 17:47 | 58.87844 | 24.89743 | 11866 ft | 328 kts | 14° |
| 2026-05-05 17:48 | 58.89961 | 24.91324 | 11373 ft | 325 kts | 14° |
| 2026-05-05 17:48 | 58.92056 | 24.92894 | 10837 ft | 320 kts | 15° |
| 2026-05-05 17:48 | 58.94125 | 24.94442 | 10375 ft | 316 kts | 15° |
| 2026-05-05 17:48 | 58.96160 | 24.95966 | 10010 ft | 312 kts | 15° |
| 2026-05-05 17:49 | 58.98163 | 24.97467 | 9805 ft | 308 kts | 16° |
| 2026-05-05 17:49 | 59.00158 | 24.98963 | 9664 ft | 306 kts | 16° |
| 2026-05-05 17:49 | 59.02133 | 25.00445 | 9328 ft | 303 kts | 16° |
| 2026-05-05 17:49 | 59.04114 | 25.01944 | 8938 ft | 300 kts | 17° |
| 2026-05-05 17:50 | 59.05787 | 25.03237 | 8599 ft | 298 kts | 17° |
| 2026-05-05 17:50 | 59.07700 | 25.04679 | 8226 ft | 294 kts | 17° |
| 2026-05-05 17:50 | 59.09618 | 25.06110 | 7858 ft | 291 kts | 17° |
| 2026-05-05 17:50 | 59.11497 | 25.07521 | 7508 ft | 288 kts | 17° |
| 2026-05-05 17:51 | 59.13365 | 25.08929 | 7171 ft | 287 kts | 17° |
| 2026-05-05 17:51 | 59.15223 | 25.10335 | 6869 ft | 285 kts | 17° |
| 2026-05-05 17:51 | 59.17063 | 25.11729 | 6574 ft | 284 kts | 17° |
| 2026-05-05 17:51 | 59.18894 | 25.13118 | 6254 ft | 281 kts | 17° |
| 2026-05-05 17:52 | 59.20706 | 25.14496 | 5909 ft | 278 kts | 18° |
| 2026-05-05 17:52 | 59.22502 | 25.15865 | 5569 ft | 276 kts | 18° |
| 2026-05-05 17:52 | 59.24265 | 25.17216 | 5302 ft | 269 kts | 17° |
| 2026-05-05 17:52 | 59.25983 | 25.18527 | 5045 ft | 262 kts | 17° |
| 2026-05-05 17:53 | 59.27663 | 25.19813 | 4784 ft | 256 kts | 17° |
| 2026-05-05 17:53 | 59.29304 | 25.21073 | 4532 ft | 251 kts | 17° |
| 2026-05-05 17:53 | 59.30919 | 25.22326 | 4298 ft | 250 kts | 17° |
| 2026-05-05 17:53 | 59.32557 | 25.23513 | 4059 ft | 248 kts | 11° |
| 2026-05-05 17:54 | 59.34229 | 25.23895 | 3828 ft | 238 kts | 355° |
| 2026-05-05 17:54 | 59.35837 | 25.23908 | 3612 ft | 231 kts | 355° |
| 2026-05-05 17:54 | 59.37452 | 25.23913 | 3399 ft | 229 kts | 355° |
| 2026-05-05 17:54 | 59.38988 | 25.23781 | 3180 ft | 216 kts | 343° |
| 2026-05-05 17:55 | 59.40271 | 25.22635 | 2981 ft | 193 kts | 314° |
| 2026-05-05 17:55 | 59.40994 | 25.20655 | 2844 ft | 167 kts | 286° |
| 2026-05-05 17:55 | 59.41179 | 25.18449 | 2792 ft | 165 kts | 274° |
| 2026-05-05 17:55 | 59.41219 | 25.16189 | 2688 ft | 165 kts | 270° |
| 2026-05-05 17:56 | 59.41233 | 25.13941 | 2573 ft | 165 kts | 270° |
| 2026-05-05 17:56 | 59.41241 | 25.11680 | 2456 ft | 166 kts | 270° |
| 2026-05-05 17:56 | 59.41248 | 25.09493 | 2333 ft | 150 kts | 270° |
| 2026-05-05 17:56 | 59.41254 | 25.07495 | 2205 ft | 146 kts | 270° |
| 2026-05-05 17:57 | 59.41260 | 25.05516 | 2059 ft | 145 kts | 270° |
| 2026-05-05 17:57 | 59.41265 | 25.03526 | 1864 ft | 146 kts | 270° |
| 2026-05-05 17:57 | 59.41271 | 25.01536 | 1661 ft | 146 kts | 270° |
| 2026-05-05 17:57 | 59.41277 | 24.99545 | 1459 ft | 144 kts | 270° |
| 2026-05-05 17:58 | 59.41282 | 24.97737 | 1255 ft | 124 kts | 271° |
| 2026-05-05 17:58 | 59.41287 | 24.96053 | 1087 ft | 123 kts | 270° |
| 2026-05-05 17:58 | 59.41292 | 24.94380 | 935 ft | 123 kts | 270° |
| 2026-05-05 17:58 | 59.41297 | 24.92704 | 752 ft | 123 kts | 270° |
| 2026-05-05 17:59 | 59.41302 | 24.91026 | 581 ft | 123 kts | 271° |
| 2026-05-05 17:59 | 59.41305 | 24.89330 | 409 ft | 125 kts | 269° |
| 2026-05-05 17:59 | 59.41309 | 24.87682 | 291 ft | 126 kts | 270° |
| 2026-05-05 17:59 | 59.41315 | 24.86219 | 168 ft | 125 kts | 271° |
| 2026-05-05 18:00 | 59.41323 | 24.84730 | 167 ft | 80 kts | 268° |
| 2026-05-05 18:00 | 59.41324 | 24.83918 | 168 ft | 50 kts | 270° |
| 2026-05-05 18:00 | 59.41326 | 24.83255 | 169 ft | 43 kts | 268° |
| 2026-05-05 18:00 | 59.41332 | 24.82893 | 166 ft | 32 kts | 278° |
| 2026-05-05 18:01 | 59.41397 | 24.82540 | 166 ft | 5 kts | 301° |
| 2026-05-05 18:01 | 59.41423 | 24.82464 | 167 ft | 8 kts | 303° |
| 2026-05-05 18:01 | 59.41442 | 24.82401 | 167 ft | 0 kts | 298° |
| 2026-05-05 18:02 | 59.41443 | 24.82399 | 167 ft | 1 kts | 298° |
| 2026-05-05 18:02 | 59.41453 | 24.82362 | 167 ft | 5 kts | 298° |
| 2026-05-05 18:02 | 59.41473 | 24.82290 | 167 ft | 7 kts | 299° |
| 2026-05-05 18:03 | 59.41495 | 24.82184 | 167 ft | 10 kts | 284° |
| 2026-05-05 18:03 | 59.41502 | 24.82041 | 167 ft | 12 kts | 272° |
| 2026-05-05 18:03 | 59.41503 | 24.81864 | 167 ft | 14 kts | 270° |
| 2026-05-05 18:03 | 59.41504 | 24.81660 | 167 ft | 16 kts | 271° |
| 2026-05-05 18:04 | 59.41504 | 24.81434 | 167 ft | 15 kts | 270° |
| 2026-05-05 18:04 | 59.41505 | 24.81237 | 167 ft | 15 kts | 271° |
| 2026-05-05 18:04 | 59.41506 | 24.81019 | 167 ft | 17 kts | 270° |
| 2026-05-05 18:04 | 59.41507 | 24.80777 | 167 ft | 17 kts | 270° |
| 2026-05-05 18:05 | 59.41509 | 24.80570 | 167 ft | 9 kts | 280° |
| 2026-05-05 18:05 | 59.41521 | 24.80446 | 167 ft | 9 kts | 281° |
| 2026-05-05 18:05 | 59.41527 | 24.80303 | 167 ft | 12 kts | 270° |
| 2026-05-05 18:05 | 59.41528 | 24.80163 | 167 ft | 3 kts | 270° |
| 2026-05-05 18:06 | 59.41527 | 24.80111 | 167 ft | 5 kts | 263° |
| 2026-05-05 18:06 | 59.41538 | 24.80072 | 167 ft | 5 kts | 327° |
| 2026-05-05 18:06 | 59.41571 | 24.80063 | 167 ft | 3 kts | 0° |
| 2026-05-05 18:06 | 59.41581 | 24.80063 | 167 ft | 1 kts | 0° |
| 2026-05-05 18:07 | 59.41582 | 24.80063 | 167 ft | 0 kts | 0° |